Time;durP1;ratioP1;P1;durP2;ratioP2;P2;SDS_P1;SDS_P2;PMS_P1;PMS_P2;Temp;Humidity;BMP_temperature;BMP_pressure;BME280_temperature;BME280_humidity;BME280_pressure;Samples;Min_cycle;Max_cycle;Signal;HPM_P1;HPM_P2
2022/09/06 00:02:04;;;;;;;11.25;2.63;;;19.60;99.90;;;;;;5037880;28;20048;-93
2022/09/06 00:04:30;;;;;;;14.30;3.20;;;19.50;99.90;;;;;;5038459;28;20057;-91
2022/09/06 00:06:56;;;;;;;5.78;3.03;;;19.50;99.90;;;;;;5038082;28;20139;-93
2022/09/06 00:09:21;;;;;;;10.65;3.25;;;19.50;99.90;;;;;;5034671;28;20041;-92
2022/09/06 00:11:47;;;;;;;8.85;3.15;;;19.40;99.90;;;;;;5035440;28;20444;-92
2022/09/06 00:14:12;;;;;;;5.75;2.80;;;19.40;99.90;;;;;;5037041;28;20090;-92
2022/09/06 00:16:39;;;;;;;12.88;3.10;;;19.40;99.90;;;;;;5038085;28;20134;-93
2022/09/06 00:19:05;;;;;;;6.90;2.83;;;19.40;99.90;;;;;;5038288;28;20040;-92
2022/09/06 00:21:31;;;;;;;10.50;2.78;;;19.30;99.90;;;;;;5037356;28;20051;-92
2022/09/06 00:23:56;;;;;;;9.27;3.40;;;19.30;99.90;;;;;;5040555;28;20044;-92
2022/09/06 00:26:23;;;;;;;8.82;3.30;;;19.20;99.90;;;;;;5037837;28;20048;-93
2022/09/06 00:28:49;;;;;;;8.88;2.78;;;19.20;99.90;;;;;;5037720;28;20097;-94
2022/09/06 00:31:20;;;;;;;5.57;2.55;;;19.20;99.90;;;;;;5037432;28;20037;-93
2022/09/06 00:33:46;;;;;;;9.02;3.17;;;19.20;99.90;;;;;;5037451;28;20048;-92
2022/09/06 00:36:12;;;;;;;7.88;2.92;;;19.10;99.90;;;;;;5038284;28;20114;-92
2022/09/06 00:38:38;;;;;;;5.18;2.78;;;19.10;99.90;;;;;;5038235;28;20161;-93
2022/09/06 00:41:06;;;;;;;12.18;3.00;;;19.00;99.90;;;;;;5035051;28;20113;-92
2022/09/06 00:43:32;;;;;;;6.70;3.15;;;19.00;99.90;;;;;;5033930;28;20045;-92
2022/09/06 00:45:58;;;;;;;10.07;3.33;;;19.00;99.90;;;;;;5030531;28;20045;-92
2022/09/06 00:48:24;;;;;;;9.07;3.30;;;19.00;99.90;;;;;;5030003;28;20049;-91
2022/09/06 00:50:55;;;;;;;8.38;2.85;;;19.00;99.90;;;;;;5031212;28;20033;-92
2022/09/06 00:53:21;;;;;;;5.25;2.90;;;19.00;99.90;;;;;;5030804;28;20293;-92
2022/09/06 00:55:47;;;;;;;5.65;3.15;;;19.00;99.90;;;;;;5030480;28;20067;-92
2022/09/06 00:58:13;;;;;;;7.82;3.20;;;18.90;99.90;;;;;;5030489;28;20107;-93
2022/09/06 01:00:39;;;;;;;9.95;3.10;;;18.90;99.90;;;;;;5030330;28;20439;-92
2022/09/06 01:03:06;;;;;;;7.78;3.38;;;18.90;99.90;;;;;;5030135;28;20041;-92
2022/09/06 01:05:58;;;;;;;5.88;2.63;;;18.90;99.90;;;;;;5030772;28;20052;-92
2022/09/06 01:08:38;;;;;;;9.80;3.10;;;18.90;99.90;;;;;;5013784;28;20050;-92
2022/09/06 01:11:15;;;;;;;7.05;2.88;;;18.80;99.90;;;;;;5030592;28;20054;-92
2022/09/06 01:13:51;;;;;;;7.78;3.17;;;18.80;99.90;;;;;;5013638;28;20041;-92
2022/09/06 01:16:38;;;;;;;6.32;2.85;;;18.80;99.90;;;;;;5029924;28;20034;-92
2022/09/06 01:19:13;;;;;;;6.50;3.03;;;18.80;99.90;;;;;;5030058;28;20132;-92
2022/09/06 01:21:54;;;;;;;5.40;2.95;;;18.70;99.90;;;;;;5013936;28;20045;-92
2022/09/06 01:24:20;;;;;;;11.15;2.80;;;18.70;99.90;;;;;;5029611;28;20064;-93
2022/09/06 01:27:05;;;;;;;7.25;2.90;;;18.70;99.90;;;;;;5013627;28;20049;-93
2022/09/06 01:29:35;;;;;;;6.18;3.15;;;18.60;99.90;;;;;;5014006;28;20051;-92
2022/09/06 01:32:13;;;;;;;9.02;3.45;;;18.60;99.90;;;;;;5029482;28;20053;-92
2022/09/06 01:34:46;;;;;;;6.07;3.10;;;18.60;99.90;;;;;;5032178;28;20116;-92
2022/09/06 01:37:15;;;;;;;12.63;3.22;;;18.60;99.90;;;;;;5033362;28;20054;-93
2022/09/06 01:39:41;;;;;;;9.05;2.92;;;18.50;99.90;;;;;;5034468;28;20044;-93
2022/09/06 01:42:19;;;;;;;8.63;3.17;;;18.40;99.90;;;;;;5036415;28;20408;-92
2022/09/06 01:44:52;;;;;;;5.65;3.35;;;18.40;99.90;;;;;;5036488;28;20082;-94
2022/09/06 01:47:34;;;;;;;;;;;18.30;99.90;;;;;;5037241;28;20036;-92
2022/09/06 01:50:26;;;;;;;5.47;2.92;;;18.30;99.90;;;;;;5037448;28;20032;-92
2022/09/06 01:53:09;;;;;;;6.78;3.17;;;18.30;99.90;;;;;;5036284;28;20037;-92
2022/09/06 01:55:48;;;;;;;13.93;3.38;;;18.30;99.90;;;;;;5036676;28;20048;-92
2022/09/06 01:58:36;;;;;;;8.55;3.33;;;18.20;99.90;;;;;;5035665;28;20542;-92
2022/09/06 02:01:11;;;;;;;6.07;2.90;;;18.20;99.90;;;;;;5036883;28;20064;-92
2022/09/06 02:03:40;;;;;;;8.57;3.15;;;18.20;99.90;;;;;;5036120;28;20080;-93
2022/09/06 02:06:11;;;;;;;6.20;3.50;;;18.20;99.90;;;;;;5036004;28;20036;-92
2022/09/06 02:08:42;;;;;;;6.80;3.25;;;18.20;99.90;;;;;;5036273;28;20074;-92
2022/09/06 02:11:09;;;;;;;6.05;3.28;;;18.20;99.90;;;;;;5036175;28;20089;-92
2022/09/06 02:13:41;;;;;;;6.43;3.30;;;18.10;99.90;;;;;;5035122;28;20097;-92
2022/09/06 02:16:08;;;;;;;8.07;3.15;;;18.10;99.90;;;;;;5036539;28;20032;-92
2022/09/06 02:18:37;;;;;;;6.40;3.38;;;18.00;99.90;;;;;;5036103;28;20084;-92
2022/09/06 02:21:05;;;;;;;6.68;3.30;;;18.00;99.90;;;;;;5035462;28;20036;-92
2022/09/06 02:23:35;;;;;;;13.38;3.67;;;18.00;99.90;;;;;;5036011;28;20070;-93
2022/09/06 02:26:10;;;;;;;10.95;3.40;;;18.10;99.90;;;;;;5035604;28;20040;-95
2022/09/06 02:28:36;;;;;;;6.70;3.10;;;18.10;99.90;;;;;;5035797;28;20052;-95
2022/09/06 02:31:08;;;;;;;8.52;3.17;;;18.00;99.90;;;;;;5035913;28;20111;-93
2022/09/06 02:33:34;;;;;;;6.88;3.38;;;18.10;99.90;;;;;;5035531;28;20552;-92
2022/09/06 02:36:05;;;;;;;8.18;2.97;;;18.10;99.90;;;;;;5035301;28;20178;-92
2022/09/06 02:38:32;;;;;;;10.10;3.47;;;18.10;99.90;;;;;;5035593;28;20131;-92
2022/09/06 02:40:59;;;;;;;9.70;3.40;;;18.10;99.90;;;;;;5036417;28;20063;-93
2022/09/06 02:43:24;;;;;;;9.82;4.07;;;18.10;99.90;;;;;;5034947;28;20048;-92
2022/09/06 02:45:50;;;;;;;8.73;3.35;;;18.10;99.90;;;;;;5029048;28;20403;-93
2022/09/06 02:48:16;;;;;;;7.53;3.30;;;18.10;99.90;;;;;;5031520;28;20041;-92
2022/09/06 02:50:41;;;;;;;7.50;3.47;;;18.10;99.90;;;;;;5031862;28;20048;-92
2022/09/06 02:53:10;;;;;;;6.38;3.33;;;18.10;99.90;;;;;;5031526;28;20051;-93
2022/09/06 02:55:37;;;;;;;6.53;3.63;;;18.20;99.90;;;;;;5033407;28;20052;-92
2022/09/06 02:58:04;;;;;;;7.38;3.80;;;18.10;99.90;;;;;;5032289;28;20095;-93
2022/09/06 03:00:30;;;;;;;6.70;3.55;;;18.10;99.90;;;;;;5031711;28;20132;-93
2022/09/06 03:02:56;;;;;;;8.35;3.10;;;18.10;99.90;;;;;;5031780;28;20131;-92
2022/09/06 03:05:23;;;;;;;5.78;3.50;;;18.10;99.90;;;;;;5031635;28;20045;-92
2022/09/06 03:07:49;;;;;;;7.00;3.58;;;18.00;99.90;;;;;;5033269;28;20045;-92
2022/09/06 03:10:15;;;;;;;6.35;3.55;;;18.10;99.90;;;;;;5031697;28;20095;-92
2022/09/06 03:12:42;;;;;;;6.78;3.60;;;18.00;99.90;;;;;;5031920;28;20447;-93
2022/09/06 03:15:09;;;;;;;9.88;3.80;;;18.00;99.90;;;;;;5032327;28;20045;-92
2022/09/06 03:17:35;;;;;;;6.85;4.03;;;18.00;99.90;;;;;;5031429;28;20124;-93
2022/09/06 03:20:00;;;;;;;5.55;3.53;;;18.00;99.90;;;;;;5032549;28;20088;-92
2022/09/06 03:22:26;;;;;;;5.72;3.60;;;17.90;99.90;;;;;;5030815;28;20053;-92
2022/09/06 03:24:52;;;;;;;6.95;3.80;;;17.90;99.90;;;;;;5032664;28;20037;-93
2022/09/06 03:27:17;;;;;;;5.63;3.55;;;17.90;99.90;;;;;;5031887;28;20053;-92
2022/09/06 03:29:43;;;;;;;9.93;3.60;;;17.90;99.90;;;;;;5031016;28;20045;-92
2022/09/06 03:32:09;;;;;;;9.05;4.32;;;17.90;99.90;;;;;;5030917;28;20041;-92
2022/09/06 03:34:34;;;;;;;10.70;4.25;;;17.90;99.90;;;;;;5031569;28;20056;-92
2022/09/06 03:37:00;;;;;;;15.07;4.32;;;17.90;99.90;;;;;;5031617;28;20045;-93
2022/09/06 03:39:26;;;;;;;7.05;3.78;;;17.80;99.90;;;;;;5031536;28;20076;-93
2022/09/06 03:41:51;;;;;;;10.90;4.47;;;17.80;99.90;;;;;;5028362;28;20158;-92
2022/09/06 03:44:17;;;;;;;6.07;4.00;;;17.80;99.90;;;;;;5027485;28;20076;-92
2022/09/06 03:46:43;;;;;;;8.60;4.25;;;17.80;99.90;;;;;;5028845;28;20085;-94
2022/09/06 03:49:09;;;;;;;7.30;4.00;;;17.80;99.90;;;;;;5032274;28;20038;-92
2022/09/06 03:51:35;;;;;;;8.90;4.13;;;17.80;99.90;;;;;;5031566;28;20088;-93
2022/09/06 03:54:01;;;;;;;11.40;4.47;;;17.80;99.90;;;;;;5031930;28;20056;-93
2022/09/06 03:56:27;;;;;;;9.27;4.38;;;17.80;99.90;;;;;;5032186;28;20702;-93
2022/09/06 03:58:52;;;;;;;8.77;4.53;;;17.70;99.90;;;;;;5031438;28;20475;-92
2022/09/06 04:01:18;;;;;;;7.95;4.30;;;17.70;99.90;;;;;;5032245;28;20129;-93
2022/09/06 04:03:44;;;;;;;8.25;4.45;;;17.70;99.90;;;;;;5032407;28;20060;-93
2022/09/06 04:06:10;;;;;;;7.60;4.90;;;17.70;99.90;;;;;;5031751;28;20041;-93
2022/09/06 04:08:36;;;;;;;8.68;5.00;;;17.70;99.90;;;;;;5033972;28;20501;-93
2022/09/06 04:11:03;;;;;;;10.95;4.85;;;17.70;99.90;;;;;;5031387;28;20050;-93
2022/09/06 04:13:29;;;;;;;12.10;4.50;;;17.70;99.90;;;;;;5031478;28;20049;-92
2022/09/06 04:15:55;;;;;;;9.50;4.72;;;17.60;99.90;;;;;;5050397;28;20141;-92
2022/09/06 04:18:21;;;;;;;7.90;4.75;;;17.70;99.90;;;;;;5033734;28;20627;-94
2022/09/06 04:20:49;;;;;;;8.40;5.05;;;17.60;99.90;;;;;;5034584;28;20582;-91
2022/09/06 04:23:15;;;;;;;8.40;4.72;;;17.60;99.90;;;;;;5034266;28;20040;-92
2022/09/06 04:25:44;;;;;;;7.50;4.50;;;17.70;99.90;;;;;;5034185;28;20128;-92
2022/09/06 04:28:09;;;;;;;12.48;4.72;;;17.60;99.90;;;;;;5034416;28;20037;-93
2022/09/06 04:30:35;;;;;;;14.48;5.30;;;17.60;99.90;;;;;;5035058;28;20052;-93
2022/09/06 04:33:01;;;;;;;6.63;4.75;;;17.70;99.90;;;;;;5034679;28;20052;-92
2022/09/06 04:35:26;;;;;;;7.47;4.72;;;17.60;99.90;;;;;;5033828;28;20059;-93
2022/09/06 04:37:52;;;;;;;7.03;4.97;;;17.60;99.90;;;;;;5035308;28;20137;-93
2022/09/06 04:40:17;;;;;;;12.70;5.78;;;17.70;99.90;;;;;;5041612;28;20049;-93
2022/09/06 04:42:43;;;;;;;10.93;5.60;;;17.70;99.90;;;;;;5055095;28;20496;-92
2022/09/06 04:45:09;;;;;;;10.02;5.68;;;17.60;99.90;;;;;;5054529;28;20072;-92
2022/09/06 04:47:35;;;;;;;8.38;5.30;;;17.60;99.90;;;;;;5053166;28;20098;-93
2022/09/06 04:50:00;;;;;;;6.78;5.03;;;17.60;99.90;;;;;;5054580;28;20040;-92
2022/09/06 04:52:26;;;;;;;10.10;5.93;;;17.60;99.90;;;;;;5053758;28;20088;-93
2022/09/06 04:54:52;;;;;;;7.40;5.35;;;17.60;99.90;;;;;;5054205;28;20087;-92
2022/09/06 04:57:17;;;;;;;9.43;5.13;;;17.60;99.90;;;;;;5054467;28;20053;-92
2022/09/06 04:59:43;;;;;;;12.13;5.90;;;17.70;99.90;;;;;;5054935;28;20044;-93
2022/09/06 05:02:09;;;;;;;13.93;5.38;;;17.60;99.90;;;;;;5053655;28;20044;-93
2022/09/06 05:04:34;;;;;;;11.15;5.57;;;17.60;99.90;;;;;;5054010;28;20123;-92
2022/09/06 05:07:03;;;;;;;12.95;4.90;;;17.60;99.90;;;;;;5054308;28;20093;-92
2022/09/06 05:09:30;;;;;;;10.13;5.07;;;17.60;99.90;;;;;;5034066;28;20413;-92
2022/09/06 05:11:56;;;;;;;10.88;5.28;;;17.60;99.90;;;;;;5017679;28;20044;-92
2022/09/06 05:14:22;;;;;;;12.65;6.10;;;17.60;99.90;;;;;;5017603;28;20041;-92
2022/09/06 05:16:49;;;;;;;8.13;5.45;;;17.70;99.90;;;;;;5017723;28;20052;-92
2022/09/06 05:19:15;;;;;;;7.82;5.97;;;17.60;99.90;;;;;;5017662;28;20520;-92
2022/09/06 05:21:41;;;;;;;11.07;5.82;;;17.60;99.90;;;;;;5016681;28;20060;-93
2022/09/06 05:24:07;;;;;;;12.50;5.35;;;17.60;99.90;;;;;;5017401;28;20041;-92
2022/09/06 05:26:32;;;;;;;11.23;5.72;;;17.50;99.90;;;;;;5016849;28;20059;-92
2022/09/06 05:28:58;;;;;;;13.90;6.30;;;17.50;99.90;;;;;;5015759;28;20059;-92
2022/09/06 05:31:29;;;;;;;16.40;6.25;;;17.50;99.90;;;;;;5024038;28;20041;-92
2022/09/06 05:33:56;;;;;;;8.93;5.75;;;17.50;99.90;;;;;;5027189;28;20041;-93
2022/09/06 05:36:22;;;;;;;13.45;5.85;;;17.50;99.90;;;;;;5022183;28;20424;-93
2022/09/06 05:38:50;;;;;;;9.63;5.97;;;17.50;99.90;;;;;;5025319;28;20036;-93
2022/09/06 05:41:16;;;;;;;8.20;5.72;;;17.50;99.90;;;;;;5027655;28;20041;-93
2022/09/06 05:43:42;;;;;;;14.52;5.82;;;17.50;99.90;;;;;;5028981;28;20500;-94
2022/09/06 05:46:08;;;;;;;9.85;6.07;;;17.60;99.90;;;;;;5024626;28;20107;-94
2022/09/06 05:48:34;;;;;;;10.27;5.90;;;17.60;99.90;;;;;;5029205;28;20041;-94
2022/09/06 05:51:03;;;;;;;13.85;6.15;;;17.60;99.90;;;;;;5030214;28;20037;-92
2022/09/06 05:53:43;;;;;;;11.52;6.60;;;17.70;99.90;;;;;;5024666;28;20051;-93
2022/09/06 05:56:11;;;;;;;12.88;6.80;;;17.70;99.90;;;;;;5033005;28;20048;-90
2022/09/06 05:58:37;;;;;;;12.05;6.57;;;17.70;99.90;;;;;;5024849;28;20064;-91
2022/09/06 06:01:05;;;;;;;11.52;6.70;;;17.80;99.90;;;;;;5024771;28;20036;-90
2022/09/06 06:03:31;;;;;;;9.45;6.65;;;17.90;99.90;;;;;;5023964;28;20088;-90
2022/09/06 06:05:57;;;;;;;12.23;6.78;;;17.90;99.90;;;;;;5023466;28;20057;-92
2022/09/06 06:08:23;;;;;;;10.38;6.95;;;18.00;99.90;;;;;;5024955;28;20053;-91
2022/09/06 06:10:48;;;;;;;12.13;6.93;;;18.10;99.90;;;;;;5023946;28;20243;-92
2022/09/06 06:13:14;;;;;;;10.05;6.00;;;18.10;99.90;;;;;;5026854;28;20055;-91
2022/09/06 06:15:40;;;;;;;9.73;6.90;;;18.20;99.90;;;;;;5025509;28;20056;-90
2022/09/06 06:18:05;;;;;;;13.65;7.07;;;18.30;99.90;;;;;;5024552;28;20124;-90
2022/09/06 06:20:34;;;;;;;15.07;6.68;;;18.30;99.90;;;;;;5024048;28;20248;-92
2022/09/06 06:23:00;;;;;;;12.77;7.10;;;18.30;99.90;;;;;;5026962;28;20167;-90
2022/09/06 06:25:25;;;;;;;11.80;7.30;;;18.30;99.90;;;;;;5023195;28;20079;-93
2022/09/06 06:27:52;;;;;;;12.63;7.72;;;18.40;99.90;;;;;;5025582;28;20095;-93
2022/09/06 06:30:17;;;;;;;12.63;7.38;;;18.40;99.90;;;;;;5028269;28;20040;-93
2022/09/06 06:32:43;;;;;;;8.57;6.63;;;18.40;99.90;;;;;;5025037;28;20041;-93
2022/09/06 06:35:09;;;;;;;12.60;7.88;;;18.40;99.90;;;;;;5026662;28;20469;-93
2022/09/06 06:37:35;;;;;;;10.48;7.68;;;18.50;99.90;;;;;;5027847;28;20059;-93
2022/09/06 06:40:00;;;;;;;14.85;7.38;;;18.50;99.90;;;;;;5032848;28;20044;-93
2022/09/06 06:42:26;;;;;;;8.48;7.25;;;18.50;99.90;;;;;;5022366;28;20524;-95
2022/09/06 06:44:52;;;;;;;13.60;7.03;;;18.50;99.90;;;;;;5026732;28;20045;-93
2022/09/06 06:47:18;;;;;;;12.23;6.97;;;18.50;99.90;;;;;;5033755;28;20036;-93
2022/09/06 06:49:44;;;;;;;16.55;7.65;;;18.50;99.90;;;;;;5032261;28;20701;-94
2022/09/06 06:52:10;;;;;;;14.60;7.28;;;18.50;99.90;;;;;;5033664;28;20048;-94
2022/09/06 06:54:36;;;;;;;17.88;7.50;;;18.60;99.90;;;;;;5031006;28;20063;-93
2022/09/06 06:57:03;;;;;;;16.77;7.35;;;18.50;99.90;;;;;;5034173;28;20048;-94
2022/09/06 06:59:29;;;;;;;18.30;7.53;;;18.50;99.90;;;;;;5032741;28;20040;-93
2022/09/06 07:01:55;;;;;;;14.48;7.63;;;18.50;99.90;;;;;;5030224;28;20036;-92
2022/09/06 07:04:21;;;;;;;18.25;7.63;;;18.50;99.90;;;;;;5027891;28;20156;-93
2022/09/06 07:06:50;;;;;;;15.65;7.90;;;18.50;99.90;;;;;;5026278;28;20071;-94
2022/09/06 07:09:17;;;;;;;15.23;7.88;;;18.60;99.90;;;;;;5023680;28;20033;-94
2022/09/06 07:11:43;;;;;;;20.00;8.27;;;18.60;99.90;;;;;;5034757;28;20084;-92
2022/09/06 07:14:09;;;;;;;14.35;7.97;;;18.60;99.90;;;;;;5035077;28;20055;-93
2022/09/06 07:16:35;;;;;;;16.88;9.00;;;18.70;99.90;;;;;;5035692;28;20040;-93
2022/09/06 07:19:00;;;;;;;19.75;8.13;;;18.80;99.90;;;;;;5033913;28;20501;-94
2022/09/06 07:21:26;;;;;;;19.13;7.60;;;18.90;99.90;;;;;;5033430;28;20139;-93
2022/09/06 07:23:53;;;;;;;20.23;8.30;;;18.90;99.90;;;;;;5039170;28;20501;-93
2022/09/06 07:26:23;;;;;;;16.90;8.40;;;19.00;99.90;;;;;;5033969;28;20048;-93
2022/09/06 07:28:53;;;;;;;11.60;7.57;;;19.10;99.90;;;;;;5033121;28;20043;-93
2022/09/06 07:31:19;;;;;;;18.13;8.38;;;19.20;99.90;;;;;;5034324;28;20080;-93
2022/09/06 07:33:45;;;;;;;10.23;7.78;;;19.30;99.90;;;;;;5037673;28;20394;-93
2022/09/06 07:36:11;;;;;;;12.48;8.45;;;19.30;99.90;;;;;;5026349;28;20045;-93
2022/09/06 07:38:37;;;;;;;14.65;8.77;;;19.40;99.90;;;;;;5029041;28;20037;-93
2022/09/06 07:41:05;;;;;;;17.90;8.05;;;19.40;99.90;;;;;;5026262;28;20056;-93
2022/09/06 07:43:31;;;;;;;11.43;8.00;;;19.40;99.90;;;;;;5029690;28;20107;-93
2022/09/06 07:45:59;;;;;;;16.15;8.27;;;19.40;99.90;;;;;;5025002;28;20098;-92
2022/09/06 07:48:28;;;;;;;13.80;8.10;;;19.60;99.90;;;;;;5033524;28;20043;-90
2022/09/06 07:50:53;;;;;;;14.20;8.27;;;19.50;99.90;;;;;;5021250;28;20041;-92
2022/09/06 07:53:19;;;;;;;12.20;7.88;;;19.60;99.90;;;;;;5019100;28;20052;-92
2022/09/06 07:55:45;;;;;;;12.75;8.30;;;19.70;99.90;;;;;;5019504;28;20047;-89
2022/09/06 07:58:10;;;;;;;13.15;8.07;;;19.90;99.90;;;;;;5017761;28;20102;-90
2022/09/06 08:00:37;;;;;;;14.98;8.15;;;19.90;99.90;;;;;;5034014;28;20080;-89
2022/09/06 08:03:03;;;;;;;15.25;8.73;;;20.00;99.90;;;;;;5038006;28;20131;-90
2022/09/06 08:05:28;;;;;;;15.50;8.00;;;20.10;99.90;;;;;;5038368;28;20611;-91
2022/09/06 08:07:54;;;;;;;17.88;8.02;;;20.20;99.90;;;;;;5035967;28;20049;-91
2022/09/06 08:10:20;;;;;;;11.00;8.18;;;20.40;99.90;;;;;;5036851;28;20045;-94
2022/09/06 08:12:45;;;;;;;18.42;8.07;;;20.60;99.90;;;;;;5036034;28;20136;-94
2022/09/06 08:15:11;;;;;;;13.43;7.35;;;20.70;99.90;;;;;;5035168;28;20040;-93
2022/09/06 08:17:36;;;;;;;13.35;7.43;;;20.80;99.90;;;;;;5035537;28;20611;-93
2022/09/06 08:20:03;;;;;;;12.93;7.32;;;21.00;99.90;;;;;;5035005;28;20496;-93
2022/09/06 08:22:32;;;;;;;13.23;8.38;;;21.10;99.90;;;;;;5034926;28;20040;-93
2022/09/06 08:24:58;;;;;;;10.15;7.45;;;21.20;99.90;;;;;;5035618;28;20049;-93
2022/09/06 08:27:24;;;;;;;13.13;8.07;;;21.30;99.90;;;;;;5034857;28;20442;-94
2022/09/06 08:29:50;;;;;;;15.50;7.45;;;21.40;99.90;;;;;;5035276;28;20047;-94
2022/09/06 08:32:18;;;;;;;10.35;7.28;;;21.40;99.90;;;;;;5033405;28;20110;-93
2022/09/06 08:34:44;;;;;;;17.60;7.82;;;21.50;99.90;;;;;;5033982;28;20386;-93
2022/09/06 08:37:09;;;;;;;12.38;7.75;;;21.60;99.90;;;;;;5034167;28;20112;-93
2022/09/06 08:39:35;;;;;;;13.50;8.00;;;21.60;99.90;;;;;;5033814;28;20041;-93
2022/09/06 08:42:04;;;;;;;12.18;7.35;;;21.60;99.90;;;;;;5032400;28;20057;-93
2022/09/06 08:44:35;;;;;;;13.35;7.80;;;21.70;99.90;;;;;;5032523;28;20486;-92
2022/09/06 08:47:06;;;;;;;13.45;7.35;;;21.70;99.90;;;;;;5030898;28;20044;-93
2022/09/06 08:49:44;;;;;;;7.90;6.38;;;21.80;99.90;;;;;;5031872;28;20520;-93
2022/09/06 08:52:28;;;;;;;10.48;6.85;;;22.00;99.90;;;;;;5031016;28;20045;-92
2022/09/06 08:55:05;;;;;;;15.25;7.32;;;22.00;99.90;;;;;;5032183;28;20045;-93
2022/09/06 08:57:39;;;;;;;18.38;7.18;;;22.10;99.90;;;;;;5014148;28;20136;-93
2022/09/06 09:00:09;;;;;;;14.30;7.47;;;22.20;99.90;;;;;;5013247;28;20103;-94
2022/09/06 09:02:45;;;;;;;10.38;7.03;;;22.40;99.90;;;;;;5013418;28;20045;-93
2022/09/06 09:05:20;;;;;;;13.63;8.02;;;22.50;99.90;;;;;;5014121;28;20188;-92
2022/09/06 09:08:03;;;;;;;12.07;7.50;;;22.50;99.90;;;;;;5014403;28;20083;-93
2022/09/06 09:10:33;;;;;;;17.40;7.50;;;22.60;99.90;;;;;;5015719;28;20042;-93
2022/09/06 09:13:02;;;;;;;14.52;7.35;;;22.70;99.90;;;;;;5013958;28;20045;-92
2022/09/06 09:15:28;;;;;;;9.23;6.78;;;22.70;99.90;;;;;;5012781;28;20486;-94
2022/09/06 09:17:54;;;;;;;10.35;7.65;;;22.70;99.90;;;;;;5014159;28;20080;-93
2022/09/06 09:20:20;;;;;;;12.57;7.45;;;22.90;99.90;;;;;;5015194;28;20076;-95
2022/09/06 09:22:47;;;;;;;10.07;8.10;;;23.00;99.90;;;;;;5014597;28;20049;-93
2022/09/06 09:25:21;;;;;;;10.73;7.38;;;23.10;99.90;;;;;;5013328;28;20049;-92
2022/09/06 09:27:56;;;;;;;15.20;7.75;;;23.30;99.90;;;;;;5015721;28;20132;-94
2022/09/06 09:30:22;;;;;;;11.80;7.28;;;23.40;99.90;;;;;;5013753;28;20069;-93
2022/09/06 09:32:48;;;;;;;10.90;7.72;;;23.30;99.90;;;;;;5013753;28;20480;-92
2022/09/06 09:35:26;;;;;;;15.68;8.27;;;23.20;99.90;;;;;;5013044;28;20096;-93
2022/09/06 09:37:59;;;;;;;11.40;7.38;;;23.20;99.90;;;;;;5015196;28;20053;-94
2022/09/06 09:40:25;;;;;;;15.13;7.97;;;23.30;99.90;;;;;;5019651;28;20052;-94
2022/09/06 09:42:53;;;;;;;10.68;8.25;;;23.30;99.90;;;;;;5032108;28;20064;-94
2022/09/06 09:45:19;;;;;;;10.20;7.78;;;23.50;99.90;;;;;;5033370;28;20138;-93
2022/09/06 09:47:45;;;;;;;12.32;7.47;;;23.60;99.90;;;;;;5033500;28;20048;-94
2022/09/06 09:50:28;;;;;;;9.43;7.93;;;23.80;99.90;;;;;;5032556;28;20079;-94
2022/09/06 09:52:54;;;;;;;16.98;8.40;;;24.00;99.90;;;;;;5033357;28;20048;-94
2022/09/06 09:55:23;;;;;;;14.98;7.50;;;24.10;99.90;;;;;;5033214;28;20087;-94
2022/09/06 09:57:52;;;;;;;11.70;6.80;;;24.10;99.90;;;;;;5034503;28;20040;-93
2022/09/06 10:00:39;;;;;;;15.02;7.10;;;24.00;99.90;;;;;;5034617;28;20326;-92
2022/09/06 10:03:16;;;;;;;10.75;6.93;;;24.10;99.90;;;;;;5032946;28;20052;-94
2022/09/06 10:05:53;;;;;;;14.07;6.53;;;24.20;99.90;;;;;;5032962;28;20148;-94
2022/09/06 10:08:22;;;;;;;15.05;6.75;;;24.20;99.90;;;;;;5033387;28;20816;-94
2022/09/06 10:10:48;;;;;;;13.18;7.07;;;24.20;99.90;;;;;;5033923;28;20091;-94
2022/09/06 10:13:20;;;;;;;11.88;6.70;;;24.10;99.90;;;;;;5032522;28;20095;-93
2022/09/06 10:15:48;;;;;;;16.35;6.80;;;24.00;99.90;;;;;;5032834;28;20084;-93
2022/09/06 10:18:32;;;;;;;13.48;7.22;;;24.00;99.90;;;;;;5033699;28;20053;-93
2022/09/06 10:21:04;;;;;;;12.45;7.22;;;23.90;99.90;;;;;;5033137;28;20053;-94
2022/09/06 10:23:47;;;;;;;11.40;7.25;;;23.80;99.90;;;;;;5033535;28;20053;-94
2022/09/06 10:26:15;;;;;;;17.25;7.25;;;23.80;99.90;;;;;;5032633;28;20480;-95
2022/09/06 10:28:41;;;;;;;8.98;6.43;;;23.80;99.90;;;;;;5032970;28;20048;-94
2022/09/06 10:31:23;;;;;;;9.82;6.70;;;23.80;99.90;;;;;;5032488;28;20067;-94
2022/09/06 10:34:07;;;;;;;13.90;6.97;;;23.90;99.90;;;;;;5033592;28;20056;-93
2022/09/06 10:36:45;;;;;;;11.48;7.45;;;24.00;99.90;;;;;;5033274;28;20416;-94
2022/09/06 10:39:47;;;;;;;12.10;7.25;;;24.10;99.90;;;;;;5031654;28;20049;-93
2022/09/06 10:42:29;;;;;;;9.43;7.27;;;24.20;99.90;;;;;;4997254;28;20140;-95
2022/09/06 10:45:28;;;;;;;12.32;7.53;;;24.30;99.90;;;;;;5002478;28;20423;-94
2022/09/06 10:47:54;;;;;;;12.82;6.63;;;24.30;99.90;;;;;;5014103;28;20033;-94
2022/09/06 10:50:24;;;;;;;9.48;7.05;;;24.40;99.90;;;;;;5012016;28;20485;-94
2022/09/06 10:52:51;;;;;;;12.65;6.85;;;24.40;99.90;;;;;;5012190;28;20092;-94
2022/09/06 10:55:18;;;;;;;11.27;6.88;;;24.50;99.90;;;;;;5015626;28;20069;-94
2022/09/06 10:57:51;;;;;;;9.85;6.40;;;24.60;99.90;;;;;;5015150;28;20060;-94
2022/09/06 11:00:17;;;;;;;15.50;7.00;;;24.70;99.90;;;;;;5013010;28;20045;-94
2022/09/06 11:02:48;;;;;;;12.23;7.20;;;24.70;99.90;;;;;;5014988;28;20042;-94
2022/09/06 11:05:21;;;;;;;8.95;6.80;;;24.70;99.90;;;;;;5012211;28;20045;-94
2022/09/06 11:07:53;;;;;;;;;;;24.70;99.90;;;;;;5007290;28;20049;-94
2022/09/06 11:10:25;;;;;;;11.70;6.63;;;24.70;99.90;;;;;;4993610;28;19928;-95
2022/09/06 11:12:51;;;;;;;;;;;24.70;99.90;;;;;;5009672;28;20046;-95
2022/09/06 11:15:19;;;;;;;13.63;6.45;;;24.70;99.90;;;;;;4992551;28;19932;-94
2022/09/06 11:17:59;;;;;;;10.77;5.78;;;24.80;99.90;;;;;;5009664;28;20152;-94
2022/09/06 11:20:33;;;;;;;12.90;6.10;;;24.90;99.90;;;;;;5010982;28;20112;-94
2022/09/06 11:23:17;;;;;;;11.90;6.00;;;25.00;99.90;;;;;;4992812;28;20236;-94
2022/09/06 11:25:44;;;;;;;9.73;5.68;;;25.10;99.90;;;;;;5009482;28;20153;-93
2022/09/06 11:28:17;;;;;;;10.02;6.03;;;25.10;99.90;;;;;;4995125;28;20065;-92
2022/09/06 11:30:48;;;;;;;10.63;5.78;;;25.20;99.90;;;;;;5010228;28;20049;-91
2022/09/06 11:33:25;;;;;;;9.00;4.93;;;25.20;99.90;;;;;;5008072;28;20054;-92
2022/09/06 11:35:52;;;;;;;10.63;5.32;;;25.30;99.90;;;;;;5007531;28;20135;-94
2022/09/06 11:38:23;;;;;;;11.23;4.80;;;25.30;99.90;;;;;;5008653;28;20034;-92
2022/09/06 11:40:57;;;;;;;15.80;4.82;;;25.40;99.90;;;;;;5017406;28;20072;-92
2022/09/06 11:43:45;;;;;;;7.72;4.03;;;25.30;99.90;;;;;;5028287;28;20079;-92
2022/09/06 11:46:32;;;;;;;13.27;4.65;;;25.40;99.90;;;;;;5027573;28;20478;-92
2022/09/06 11:49:13;;;;;;;9.93;4.57;;;25.50;99.90;;;;;;5012134;28;20049;-93
2022/09/06 11:51:43;;;;;;;7.37;4.13;;;25.60;99.90;;;;;;5013042;28;20128;-93
2022/09/06 11:54:10;;;;;;;10.70;4.90;;;25.70;99.90;;;;;;5028304;28;20103;-93
2022/09/06 11:56:48;;;;;;;8.15;4.15;;;25.70;99.90;;;;;;5011525;28;20042;-93
2022/09/06 11:59:15;;;;;;;8.35;4.40;;;25.70;99.90;;;;;;5027629;28;20041;-92
2022/09/06 12:01:57;;;;;;;11.63;4.35;;;25.70;99.90;;;;;;5011317;28;20408;-93
2022/09/06 12:04:23;;;;;;;8.88;3.83;;;25.70;99.90;;;;;;5027887;28;20512;-93
2022/09/06 12:07:10;;;;;;;6.53;3.90;;;25.70;99.90;;;;;;5028359;28;20491;-92
2022/09/06 12:09:39;;;;;;;7.43;3.50;;;25.60;99.90;;;;;;5032878;28;20045;-93
2022/09/06 12:12:05;;;;;;;8.55;3.97;;;25.60;99.90;;;;;;5030126;28;20485;-91
2022/09/06 12:14:39;;;;;;;7.70;4.05;;;25.60;99.90;;;;;;5031602;28;20049;-92
2022/09/06 12:17:06;;;;;;;9.23;3.50;;;25.70;99.90;;;;;;5030779;28;20041;-93
2022/09/06 12:19:51;;;;;;;6.95;3.90;;;25.70;99.90;;;;;;5015684;28;20061;-93
2022/09/06 12:22:28;;;;;;;9.25;3.92;;;25.70;99.90;;;;;;5032772;28;20052;-93
2022/09/06 12:24:59;;;;;;;7.90;3.67;;;25.80;99.90;;;;;;5014147;28;20049;-92
2022/09/06 12:27:28;;;;;;;8.43;3.75;;;25.80;99.90;;;;;;5030591;28;20042;-93
2022/09/06 12:29:57;;;;;;;8.95;4.20;;;25.80;99.90;;;;;;5032751;28;20115;-91
2022/09/06 12:32:32;;;;;;;9.55;3.95;;;25.90;99.90;;;;;;5029986;28;20520;-92
2022/09/06 12:34:58;;;;;;;9.40;4.00;;;25.90;99.90;;;;;;5031345;28;20136;-91
2022/09/06 12:37:47;;;;;;;11.85;3.75;;;25.90;99.90;;;;;;5033808;28;20049;-92
2022/09/06 12:40:13;;;;;;;15.93;4.57;;;26.00;99.90;;;;;;5033484;28;20075;-92
2022/09/06 12:42:47;;;;;;;7.85;4.40;;;26.10;99.90;;;;;;5033813;28;20548;-92
2022/09/06 12:45:13;;;;;;;11.05;4.55;;;26.00;99.90;;;;;;5032910;28;20382;-93
2022/09/06 12:47:39;;;;;;;13.95;3.75;;;25.90;99.90;;;;;;5035418;28;20064;-92
2022/09/06 12:50:16;;;;;;;12.52;4.00;;;25.90;99.90;;;;;;5033760;28;20041;-92
2022/09/06 12:52:53;;;;;;;7.03;3.95;;;26.00;99.90;;;;;;5034136;28;20052;-92
2022/09/06 12:55:26;;;;;;;13.60;3.65;;;26.10;99.90;;;;;;5034449;28;20047;-92